createdAt,value
2022-09-04T00:00:29.728Z,15.80
2022-09-04T00:03:15.603Z,15.80
2022-09-04T00:05:42.185Z,15.80
2022-09-04T00:08:24.862Z,15.80
2022-09-04T00:10:57.334Z,15.80
2022-09-04T00:13:27.589Z,15.70
2022-09-04T00:16:01.016Z,15.70
2022-09-04T00:18:43.464Z,15.70
2022-09-04T00:21:16.013Z,15.70
2022-09-04T00:23:45.526Z,15.60
2022-09-04T00:26:20.959Z,15.60
2022-09-04T00:28:49.612Z,15.60
2022-09-04T00:31:24.555Z,15.60
2022-09-04T00:33:54.357Z,15.60
2022-09-04T00:36:22.386Z,15.60
2022-09-04T00:38:55.192Z,15.60
2022-09-04T00:41:26.955Z,15.60
2022-09-04T00:44:11.846Z,15.50
2022-09-04T00:46:53.237Z,15.50
2022-09-04T00:49:36.559Z,15.50
2022-09-04T00:52:31.386Z,15.50
2022-09-04T00:55:09.471Z,15.50
2022-09-04T00:57:45.274Z,15.50
2022-09-04T01:00:16.517Z,15.50
2022-09-04T01:03:01.638Z,15.40
2022-09-04T01:05:47.129Z,15.40
2022-09-04T01:08:32.592Z,15.40
2022-09-04T01:11:17.683Z,15.40
2022-09-04T01:14:03.030Z,15.40
2022-09-04T01:16:35.755Z,15.40
2022-09-04T01:19:22.593Z,15.40
2022-09-04T01:22:07.920Z,15.40
2022-09-04T01:24:54.053Z,15.30
2022-09-04T01:27:36.944Z,15.30
2022-09-04T01:30:08.038Z,15.30
2022-09-04T01:32:53.329Z,15.00
2022-09-04T01:35:19.999Z,15.20
2022-09-04T01:38:06.383Z,15.10
2022-09-04T01:40:42.292Z,15.10
2022-09-04T01:43:11.346Z,15.10
2022-09-04T01:45:53.324Z,15.00
2022-09-04T01:48:23.005Z,15.00
2022-09-04T01:50:54.282Z,15.00
2022-09-04T01:53:25.152Z,15.00
2022-09-04T01:56:04.127Z,15.00
2022-09-04T01:58:37.217Z,15.00
2022-09-04T02:01:16.032Z,15.00
2022-09-04T02:03:56.504Z,15.00
2022-09-04T02:06:26.745Z,14.90
2022-09-04T02:09:10.842Z,15.00
2022-09-04T02:11:39.917Z,15.00
2022-09-04T02:14:21.128Z,15.00
2022-09-04T02:17:18.279Z,15.00
2022-09-04T02:19:53.954Z,15.00
2022-09-04T02:22:49.920Z,15.00
2022-09-04T02:25:22.379Z,14.90
2022-09-04T02:28:07.789Z,15.00
2022-09-04T02:30:40.093Z,14.90
2022-09-04T02:33:06.657Z,14.90
2022-09-04T02:35:44.575Z,14.90
2022-09-04T02:38:13.921Z,14.90
2022-09-04T02:40:59.351Z,14.80
2022-09-04T02:43:36.552Z,14.90
2022-09-04T02:46:07.441Z,14.90
2022-09-04T02:48:53.074Z,14.80
2022-09-04T02:51:20.744Z,14.80
2022-09-04T02:53:53.409Z,14.70
2022-09-04T02:56:23.013Z,14.70
2022-09-04T02:59:07.599Z,14.60
2022-09-04T03:02:03.998Z,14.60
2022-09-04T03:04:35.507Z,14.60
2022-09-04T03:07:02.273Z,14.60
2022-09-04T03:09:50.243Z,14.60
2022-09-04T03:12:30.366Z,14.60
2022-09-04T03:15:15.583Z,14.60
2022-09-04T03:17:47.603Z,14.60
2022-09-04T03:20:17.888Z,14.60
2022-09-04T03:22:56.612Z,14.60
2022-09-04T03:25:26.189Z,14.60
2022-09-04T03:27:52.822Z,14.50
2022-09-04T03:30:19.697Z,14.50
2022-09-04T03:32:52.460Z,14.50
2022-09-04T03:35:32.700Z,14.50
2022-09-04T03:38:04.113Z,14.50
2022-09-04T03:40:36.247Z,14.40
2022-09-04T03:43:23.083Z,14.40
2022-09-04T03:46:08.620Z,14.40
2022-09-04T03:48:35.320Z,14.40
2022-09-04T03:51:08.494Z,14.40
2022-09-04T03:53:35.032Z,14.40
2022-09-04T03:56:19.876Z,14.40
2022-09-04T03:58:46.425Z,14.40
2022-09-04T04:01:25.152Z,14.40
2022-09-04T04:04:09.106Z,14.40
2022-09-04T04:06:48.052Z,14.40
2022-09-04T04:09:24.462Z,14.40
2022-09-04T04:12:02.930Z,14.40
2022-09-04T04:14:37.569Z,14.40
2022-09-04T04:17:20.630Z,14.40
2022-09-04T04:20:04.037Z,14.30
2022-09-04T04:22:33.715Z,14.30
2022-09-04T04:25:09.406Z,14.40
2022-09-04T04:27:48.724Z,14.40
2022-09-04T04:30:18.918Z,14.30
2022-09-04T04:32:54.435Z,14.40
2022-09-04T04:35:35.559Z,14.40
2022-09-04T04:38:04.901Z,14.40
2022-09-04T04:40:50.312Z,14.40
2022-09-04T04:43:22.199Z,14.40
2022-09-04T04:45:59.539Z,14.40
2022-09-04T04:48:41.377Z,14.40
2022-09-04T04:51:07.917Z,14.40
2022-09-04T04:53:53.219Z,14.40
2022-09-04T04:56:28.127Z,14.50
2022-09-04T04:59:20.394Z,14.50
2022-09-04T05:02:04.722Z,14.60
2022-09-04T05:04:37.333Z,14.60
2022-09-04T05:07:11.040Z,14.60
2022-09-04T05:10:07.251Z,14.60
2022-09-04T05:13:03.291Z,14.70
2022-09-04T05:15:52.901Z,14.70
2022-09-04T05:18:43.460Z,14.80
2022-09-04T05:21:19.597Z,14.70
2022-09-04T05:24:05.052Z,14.80
2022-09-04T05:26:46.629Z,14.80
2022-09-04T05:29:19.383Z,14.80
2022-09-04T05:32:05.160Z,14.80
2022-09-04T05:34:57.356Z,14.80
2022-09-04T05:37:37.154Z,14.80
2022-09-04T05:40:07.549Z,14.90
2022-09-04T05:42:57.742Z,15.00
2022-09-04T05:45:24.399Z,15.10
2022-09-04T05:47:57.108Z,15.10
2022-09-04T05:50:42.504Z,15.20
2022-09-04T05:53:24.174Z,15.20
2022-09-04T05:55:58.742Z,15.20
2022-09-04T05:58:25.885Z,15.30
2022-09-04T06:01:13.477Z,15.30
2022-09-04T06:03:43.772Z,15.30
2022-09-04T06:06:14.072Z,15.30
2022-09-04T06:08:55.963Z,15.30
2022-09-04T06:11:22.533Z,15.50
2022-09-04T06:14:03.319Z,15.90
2022-09-04T06:16:47.842Z,16.20
2022-09-04T06:19:37.321Z,16.60
2022-09-04T06:22:23.960Z,17.00
2022-09-04T06:25:10.737Z,17.50
2022-09-04T06:27:46.156Z,17.80
2022-09-04T06:30:16.851Z,18.00
2022-09-04T06:32:49.788Z,18.30
2022-09-04T06:35:36.267Z,18.50
2022-09-04T06:38:02.794Z,18.70
2022-09-04T06:40:32.409Z,19.00
2022-09-04T06:43:17.327Z,19.30
2022-09-04T06:45:56.735Z,19.70
2022-09-04T06:48:29.142Z,20.10
2022-09-04T06:51:12.964Z,20.50
2022-09-04T06:53:42.725Z,21.00
2022-09-04T06:56:15.446Z,21.20
2022-09-04T06:58:53.052Z,21.60
2022-09-04T07:01:26.189Z,22.00
2022-09-04T07:04:11.726Z,22.50
2022-09-04T07:06:56.627Z,23.30
2022-09-04T07:09:26.232Z,23.60
2022-09-04T07:12:05.639Z,23.70
2022-09-04T07:14:42.360Z,23.40
2022-09-04T07:17:23.669Z,23.20
2022-09-04T07:19:53.329Z,22.90
2022-09-04T07:22:31.308Z,22.70
2022-09-04T07:25:07.305Z,22.60
2022-09-04T07:27:42.249Z,22.40
2022-09-04T07:30:09.791Z,22.30
2022-09-04T07:32:52.323Z,22.70
2022-09-04T07:35:21.810Z,23.20
2022-09-04T07:37:58.310Z,23.40
2022-09-04T07:40:27.857Z,24.10
2022-09-04T07:43:00.408Z,24.70
2022-09-04T07:45:33.894Z,25.20
2022-09-04T07:48:17.058Z,26.00
2022-09-04T07:51:03.649Z,26.10
2022-09-04T07:53:33.406Z,25.50
2022-09-04T07:56:18.083Z,25.30
2022-09-04T07:58:49.374Z,25.10
2022-09-04T08:01:31.051Z,24.90
2022-09-04T08:04:16.312Z,25.00
2022-09-04T08:06:51.508Z,25.30
2022-09-04T08:09:20.921Z,26.00
2022-09-04T08:11:48.446Z,26.20
2022-09-04T08:14:24.742Z,26.10
2022-09-04T08:17:10.194Z,25.80
2022-09-04T08:19:49.827Z,25.50
2022-09-04T08:22:28.447Z,25.10
2022-09-04T08:25:02.120Z,25.00
2022-09-04T08:27:50.380Z,24.90
2022-09-04T08:30:19.713Z,25.00
2022-09-04T08:32:58.581Z,25.50
2022-09-04T08:35:28.097Z,26.40
2022-09-04T08:38:12.817Z,27.30
2022-09-04T08:40:57.678Z,27.60
2022-09-04T08:43:39.252Z,28.30
2022-09-04T08:46:05.804Z,28.50
2022-09-04T08:48:56.251Z,28.00
2022-09-04T08:51:29.560Z,27.40
2022-09-04T08:54:14.808Z,27.00
2022-09-04T08:56:57.210Z,26.60
2022-09-04T08:59:29.660Z,26.40
2022-09-04T09:02:01.444Z,26.40
2022-09-04T09:04:43.807Z,26.40
2022-09-04T09:07:25.187Z,26.50
2022-09-04T09:10:10.504Z,26.60
2022-09-04T09:12:49.332Z,26.80
2022-09-04T09:15:22.421Z,26.80
2022-09-04T09:17:48.991Z,26.90
2022-09-04T09:20:27.607Z,26.80
2022-09-04T09:23:18.114Z,26.70
2022-09-04T09:25:50.894Z,26.70
2022-09-04T09:28:32.894Z,26.80
2022-09-04T09:31:08.568Z,26.70
2022-09-04T09:33:49.436Z,26.80
2022-09-04T09:36:20.158Z,27.10
2022-09-04T09:39:04.871Z,26.60
2022-09-04T09:41:43.567Z,27.10
2022-09-04T09:44:12.932Z,27.10
2022-09-04T09:47:01.649Z,27.20
2022-09-04T09:49:30.976Z,27.30
2022-09-04T09:52:15.073Z,27.40
2022-09-04T09:54:55.281Z,27.00
2022-09-04T09:57:44.150Z,27.00
2022-09-04T10:00:21.269Z,26.90
2022-09-04T10:03:09.628Z,27.40
2022-09-04T10:05:54.792Z,27.80
2022-09-04T10:08:35.905Z,28.00
2022-09-04T10:11:23.603Z,27.80
2022-09-04T10:13:53.277Z,27.40
2022-09-04T10:16:22.883Z,27.10
2022-09-04T10:19:04.529Z,27.20
2022-09-04T10:21:31.100Z,27.20
2022-09-04T10:24:12.049Z,27.40
2022-09-04T10:26:55.961Z,27.40
2022-09-04T10:29:23.803Z,27.80
2022-09-04T10:32:09.078Z,28.00
2022-09-04T10:34:36.920Z,28.50
2022-09-04T10:37:09.344Z,28.80
2022-09-04T10:40:10.159Z,29.00
2022-09-04T10:42:55.549Z,29.10
2022-09-04T10:45:26.883Z,29.10
2022-09-04T10:47:56.367Z,29.50
2022-09-04T10:50:56.759Z,29.70
2022-09-04T10:53:35.681Z,29.70
2022-09-04T10:56:08.699Z,29.80
2022-09-04T10:59:15.694Z,30.20
2022-09-04T11:01:55.296Z,30.30
2022-09-04T11:04:22.518Z,30.10
2022-09-04T11:07:17.529Z,30.50
2022-09-04T11:09:56.717Z,30.60
2022-09-04T11:12:39.734Z,30.60
2022-09-04T11:15:21.741Z,30.50
2022-09-04T11:18:01.344Z,30.60
2022-09-04T11:20:46.349Z,30.80
2022-09-04T11:23:15.874Z,30.60
2022-09-04T11:25:59.392Z,30.70
2022-09-04T11:28:36.032Z,30.80
2022-09-04T11:31:23.523Z,30.80
2022-09-04T11:34:08.750Z,30.60
2022-09-04T11:36:54.320Z,30.30
2022-09-04T11:39:39.714Z,29.60
2022-09-04T11:42:27.646Z,29.20
2022-09-04T11:44:55.728Z,29.20
2022-09-04T11:47:29.852Z,29.60
2022-09-04T11:50:16.467Z,29.90
2022-09-04T11:52:46.691Z,30.20
2022-09-04T11:55:28.881Z,30.10
2022-09-04T11:57:58.231Z,30.20
2022-09-04T12:00:24.815Z,30.50
2022-09-04T12:02:54.451Z,30.50
2022-09-04T12:05:39.260Z,30.40
2022-09-04T12:08:41.291Z,30.20
2022-09-04T12:11:31.886Z,30.30
2022-09-04T12:14:16.604Z,30.00
2022-09-04T12:16:44.444Z,30.30
2022-09-04T12:19:18.354Z,30.10
2022-09-04T12:22:03.803Z,30.40
2022-09-04T12:24:48.878Z,30.40
2022-09-04T12:27:34.285Z,30.30
2022-09-04T12:30:10.425Z,30.30
2022-09-04T12:32:43.547Z,30.50
2022-09-04T12:35:32.070Z,30.50
2022-09-04T12:38:04.887Z,30.50
2022-09-04T12:40:54.751Z,30.60
2022-09-04T12:43:30.240Z,30.50
2022-09-04T12:46:06.177Z,30.30
2022-09-04T12:48:44.761Z,30.60
2022-09-04T12:51:14.488Z,30.40
2022-09-04T12:53:48.214Z,30.20
2022-09-04T12:56:57.163Z,30.00
2022-09-04T12:59:41.673Z,30.00
2022-09-04T13:02:08.318Z,30.40
2022-09-04T13:04:55.683Z,30.60
2022-09-04T13:07:28.117Z,30.40
2022-09-04T13:10:13.801Z,30.10
2022-09-04T13:12:49.624Z,29.60
2022-09-04T13:15:22.513Z,29.30
2022-09-04T13:17:55.213Z,29.20
2022-09-04T13:20:34.970Z,29.50
2022-09-04T13:23:28.500Z,29.80
2022-09-04T13:26:20.883Z,29.70
2022-09-04T13:29:08.550Z,29.90
2022-09-04T13:32:10.584Z,29.70
2022-09-04T13:35:01.832Z,29.90
2022-09-04T13:37:34.828Z,30.20
2022-09-04T13:40:01.431Z,30.30
2022-09-04T13:42:52.503Z,29.90
2022-09-04T13:45:23.604Z,30.00
2022-09-04T13:47:54.196Z,30.10
2022-09-04T13:50:25.551Z,29.90
2022-09-04T13:52:59.552Z,30.00
2022-09-04T13:55:34.646Z,30.10
2022-09-04T13:58:10.496Z,30.40
2022-09-04T14:00:45.791Z,30.70
2022-09-04T14:03:16.787Z,30.90
2022-09-04T14:05:43.813Z,31.10
2022-09-04T14:08:14.264Z,31.20
2022-09-04T14:10:40.817Z,31.40
2022-09-04T14:13:28.274Z,31.80
2022-09-04T14:16:01.854Z,32.00
2022-09-04T14:18:46.864Z,32.30
2022-09-04T14:21:35.911Z,32.40
2022-09-04T14:24:25.579Z,32.60
2022-09-04T14:26:58.026Z,32.70
2022-09-04T14:29:36.216Z,32.80
2022-09-04T14:32:10.235Z,32.20
2022-09-04T14:34:39.896Z,32.10
2022-09-04T14:37:13.560Z,31.80
2022-09-04T14:39:43.267Z,31.50
2022-09-04T14:42:12.682Z,31.40
2022-09-04T14:45:02.324Z,31.20
2022-09-04T14:47:42.189Z,31.00
2022-09-04T14:50:10.297Z,30.80
2022-09-04T14:52:41.794Z,30.80
2022-09-04T14:55:13.976Z,30.70
2022-09-04T14:57:47.649Z,30.40
2022-09-04T15:00:19.082Z,30.60
2022-09-04T15:02:45.660Z,30.40
2022-09-04T15:05:23.859Z,30.00
2022-09-04T15:07:52.405Z,29.70
2022-09-04T15:10:24.504Z,29.40
2022-09-04T15:13:09.458Z,29.40
2022-09-04T15:15:38.448Z,29.50
2022-09-04T15:18:17.929Z,29.30
2022-09-04T15:20:53.763Z,29.30
2022-09-04T15:23:31.326Z,29.20
2022-09-04T15:26:36.594Z,29.20
2022-09-04T15:29:14.277Z,29.30
2022-09-04T15:31:42.560Z,29.30
2022-09-04T15:34:12.200Z,29.10
2022-09-04T15:36:39.309Z,29.10
2022-09-04T15:39:09.165Z,29.10
2022-09-04T15:41:47.043Z,29.10
2022-09-04T15:44:20.633Z,29.10
2022-09-04T15:47:13.337Z,29.00
2022-09-04T15:49:52.572Z,28.70
2022-09-04T15:52:24.390Z,28.50
2022-09-04T15:54:55.037Z,28.40
2022-09-04T15:57:35.652Z,28.20
2022-09-04T16:00:04.226Z,28.00
2022-09-04T16:02:37.369Z,27.80
2022-09-04T16:05:05.543Z,27.70
2022-09-04T16:07:40.223Z,27.40
2022-09-04T16:10:18.457Z,27.30
2022-09-04T16:12:52.406Z,27.30
2022-09-04T16:15:42.113Z,27.20
2022-09-04T16:18:10.867Z,27.20
2022-09-04T16:20:49.729Z,27.10
2022-09-04T16:23:18.874Z,27.10
2022-09-04T16:25:49.853Z,26.90
2022-09-04T16:28:25.330Z,26.90
2022-09-04T16:30:59.871Z,26.70
2022-09-04T16:33:30.104Z,26.60
2022-09-04T16:36:03.727Z,26.60
2022-09-04T16:38:47.501Z,26.50
2022-09-04T16:41:17.724Z,26.40
2022-09-04T16:44:13.910Z,26.20
2022-09-04T16:46:44.480Z,26.20
2022-09-04T16:49:35.140Z,26.10
2022-09-04T16:52:21.166Z,26.00
2022-09-04T16:54:53.301Z,25.90
2022-09-04T16:57:21.482Z,25.80
2022-09-04T16:59:50.165Z,25.70
2022-09-04T17:02:20.520Z,25.60
2022-09-04T17:04:49.378Z,25.50
2022-09-04T17:07:31.035Z,25.40
2022-09-04T17:10:05.218Z,25.40
2022-09-04T17:12:40.918Z,25.30
2022-09-04T17:15:26.446Z,25.30
2022-09-04T17:17:54.369Z,25.20
2022-09-04T17:20:20.933Z,25.10
2022-09-04T17:28:48.751Z,25.00
2022-09-04T17:29:08.061Z,24.80
2022-09-04T17:29:13.161Z,24.90
2022-09-04T17:31:52.056Z,24.70
2022-09-04T17:38:49.287Z,24.60
2022-09-04T17:40:43.033Z,24.50
2022-09-04T17:41:42.545Z,24.40
2022-09-04T17:43:32.841Z,24.20
2022-09-04T17:46:02.428Z,24.00
2022-09-04T17:48:33.390Z,23.90
2022-09-04T17:51:04.305Z,23.80
2022-09-04T17:53:34.359Z,23.70
2022-09-04T17:56:11.939Z,23.60
2022-09-04T17:58:47.822Z,23.50
2022-09-04T18:01:17.359Z,23.40
2022-09-04T18:04:02.760Z,23.30
2022-09-04T18:06:47.061Z,23.30
2022-09-04T18:09:26.844Z,23.30
2022-09-04T18:12:00.873Z,23.30
2022-09-04T18:14:33.466Z,23.20
2022-09-04T18:17:16.133Z,23.10
2022-09-04T18:19:46.949Z,23.00
2022-09-04T18:22:33.464Z,22.90
2022-09-04T18:25:16.470Z,22.80
2022-09-04T18:27:50.027Z,22.40
2022-09-04T18:37:05.500Z,22.50
2022-09-04T18:37:20.407Z,22.40
2022-09-04T18:37:25.318Z,22.30
2022-09-04T18:39:12.842Z,22.10
2022-09-04T18:45:08.614Z,21.90
2022-09-04T18:50:33.353Z,21.80
2022-09-04T18:50:52.247Z,21.70
2022-09-04T18:51:12.544Z,21.60
2022-09-04T18:53:32.149Z,21.10
2022-09-04T18:56:01.729Z,21.40
2022-09-04T18:58:36.966Z,21.30
2022-09-04T19:01:10.636Z,21.20
2022-09-04T19:03:54.633Z,21.10
2022-09-04T19:06:31.688Z,21.10
2022-09-04T19:08:59.595Z,21.10
2022-09-04T19:11:31.497Z,21.10
2022-09-04T19:14:06.361Z,21.00
2022-09-04T19:16:40.995Z,21.00
2022-09-04T19:19:17.221Z,20.90
2022-09-04T19:21:58.351Z,20.80
2022-09-04T19:24:36.069Z,20.70
2022-09-04T19:27:02.591Z,20.70
2022-09-04T19:29:54.599Z,20.60
2022-09-04T19:32:29.886Z,20.60
2022-09-04T19:35:02.393Z,20.40
2022-09-04T19:41:00.222Z,20.40
2022-09-04T19:46:01.663Z,20.30
2022-09-04T19:46:03.738Z,20.30
2022-09-04T19:46:46.571Z,20.20
2022-09-04T19:52:17.800Z,20.10
2022-09-04T19:53:30.090Z,20.00
2022-09-04T19:55:23.466Z,20.00
2022-09-04T19:58:04.807Z,20.00
2022-09-04T20:00:43.588Z,19.90
2022-09-04T20:03:29.886Z,19.80
2022-09-04T20:06:05.217Z,19.80
2022-09-04T20:08:51.440Z,19.70
2022-09-04T20:11:28.644Z,19.70
2022-09-04T20:14:11.395Z,19.60
2022-09-04T20:16:49.612Z,19.60
2022-09-04T20:19:27.528Z,19.60
2022-09-04T20:21:57.301Z,19.60
2022-09-04T20:25:01.181Z,19.50
2022-09-04T20:27:34.891Z,19.50
2022-09-04T20:30:12.008Z,19.50
2022-09-04T20:33:04.615Z,19.40
2022-09-04T20:35:38.072Z,19.40
2022-09-04T20:38:23.557Z,19.30
2022-09-04T20:41:00.697Z,19.20
2022-09-04T20:43:36.260Z,19.10
2022-09-04T20:48:10.454Z,19.10
2022-09-04T20:52:52.414Z,19.10
2022-09-04T20:52:58.596Z,19.10
2022-09-04T20:54:55.735Z,19.00
2022-09-04T21:01:56.466Z,19.00
2022-09-04T21:03:24.519Z,19.00
2022-09-04T21:03:29.588Z,19.00
2022-09-04T21:06:06.824Z,19.00
2022-09-04T21:08:39.788Z,18.90
2022-09-04T21:11:39.641Z,18.90
2022-09-04T21:14:04.686Z,18.80
2022-09-04T21:16:49.031Z,18.60
2022-09-04T21:19:29.049Z,18.70
2022-09-04T21:22:05.386Z,18.70
2022-09-04T21:25:06.573Z,18.60
2022-09-04T21:27:52.069Z,18.50
2022-09-04T21:30:39.913Z,18.50
2022-09-04T21:33:28.311Z,18.40
2022-09-04T21:36:26.072Z,18.40
2022-09-04T21:38:57.192Z,18.30
2022-09-04T21:41:26.838Z,18.30
2022-09-04T21:44:12.552Z,18.20
2022-09-04T21:46:58.024Z,18.10
2022-09-04T21:49:35.359Z,18.00
2022-09-04T21:52:20.834Z,18.00
2022-09-04T21:55:09.899Z,18.00
2022-09-04T22:02:30.474Z,18.00
2022-09-04T22:02:38.664Z,18.00
2022-09-04T22:03:44.001Z,17.90
2022-09-04T22:06:42.486Z,17.90
2022-09-04T22:13:27.648Z,17.80
2022-09-04T22:13:42.610Z,17.80
2022-09-04T22:15:06.259Z,17.80
2022-09-04T22:17:41.677Z,17.80
2022-09-04T22:20:11.078Z,17.80
2022-09-04T22:22:53.709Z,17.70
2022-09-04T22:25:20.349Z,17.70
2022-09-04T22:28:08.523Z,17.70
2022-09-04T22:30:42.049Z,17.60
2022-09-04T22:33:08.633Z,17.50
2022-09-04T22:35:53.971Z,17.50
2022-09-04T22:38:33.082Z,17.50
2022-09-04T22:41:08.520Z,17.50
2022-09-04T22:43:46.672Z,17.50
2022-09-04T22:46:46.042Z,17.40
2022-09-04T22:49:32.039Z,17.40
2022-09-04T22:52:10.144Z,17.30
2022-09-04T22:54:36.924Z,17.30
2022-09-04T22:57:19.549Z,17.30
2022-09-04T23:00:05.523Z,17.30
2022-09-04T23:03:04.290Z,17.30
2022-09-04T23:05:18.789Z,17.20
2022-09-04T23:13:53.495Z,17.20
2022-09-04T23:13:53.899Z,17.20
2022-09-04T23:14:07.475Z,17.20
2022-09-04T23:16:34.859Z,17.10
2022-09-04T23:22:52.093Z,17.10
2022-09-04T23:26:33.593Z,17.00
2022-09-04T23:26:48.449Z,17.00
2022-09-04T23:27:55.697Z,17.00
2022-09-04T23:30:25.542Z,17.00
2022-09-04T23:32:56.836Z,16.90
2022-09-04T23:35:30.891Z,17.00
2022-09-04T23:38:07.054Z,17.00
2022-09-04T23:40:37.816Z,16.90
2022-09-04T23:43:07.764Z,16.90
2022-09-04T23:46:01.921Z,16.90
2022-09-04T23:48:28.807Z,16.90
2022-09-04T23:51:01.551Z,16.90
2022-09-04T23:53:36.458Z,16.80
2022-09-04T23:56:09.037Z,16.80
2022-09-04T23:58:54.479Z,16.80
